createdAt,value
2019-02-12T00:02:27.186Z,6.78
2019-02-12T00:04:55.150Z,6.95
2019-02-12T00:07:24.019Z,7.30
2019-02-12T00:09:52.202Z,8.25
2019-02-12T00:12:20.583Z,7.45
2019-02-12T00:14:48.937Z,6.95
2019-02-12T00:17:17.085Z,5.75
2019-02-12T00:19:45.003Z,6.00
2019-02-12T00:22:13.079Z,7.03
2019-02-12T00:24:41.570Z,6.95
2019-02-12T00:27:09.791Z,8.00
2019-02-12T00:29:37.968Z,6.10
2019-02-12T00:32:05.901Z,6.60
2019-02-12T00:34:34.293Z,6.72
2019-02-12T00:37:02.447Z,6.30
2019-02-12T00:39:30.529Z,6.53
2019-02-12T00:41:58.638Z,8.08
2019-02-12T00:44:26.668Z,7.97
2019-02-12T00:46:54.614Z,7.60
2019-02-12T00:49:22.797Z,7.60
2019-02-12T00:51:50.995Z,7.78
2019-02-12T00:54:19.083Z,7.42
2019-02-12T00:56:47.011Z,6.37
2019-02-12T00:59:14.950Z,6.15
2019-02-12T01:01:43.717Z,6.37
2019-02-12T01:04:11.930Z,6.50
2019-02-12T01:06:39.863Z,6.95
2019-02-12T01:09:07.985Z,6.20
2019-02-12T01:11:36.000Z,6.08
2019-02-12T01:14:04.143Z,6.30
2019-02-12T01:16:32.048Z,6.05
2019-02-12T01:19:00.025Z,6.95
2019-02-12T01:21:27.991Z,5.58
2019-02-12T01:23:56.028Z,5.03
2019-02-12T01:26:24.080Z,5.70
2019-02-12T01:28:52.051Z,5.30
2019-02-12T01:31:20.411Z,5.30
2019-02-12T01:33:48.522Z,5.10
2019-02-12T01:36:16.919Z,4.47
2019-02-12T01:38:44.945Z,4.95
2019-02-12T01:41:12.860Z,4.53
2019-02-12T01:43:40.779Z,4.42
2019-02-12T01:46:08.778Z,3.83
2019-02-12T01:48:37.175Z,3.75
2019-02-12T01:51:05.489Z,4.15
2019-02-12T01:53:33.478Z,4.15
2019-02-12T01:56:01.878Z,4.15
2019-02-12T01:58:30.338Z,4.58
2019-02-12T02:00:58.203Z,4.80
2019-02-12T02:03:26.274Z,4.25
2019-02-12T02:05:57.020Z,5.28
2019-02-12T02:08:24.963Z,4.80
2019-02-12T02:10:52.887Z,4.55
2019-02-12T02:13:20.977Z,4.40
2019-02-12T02:15:49.426Z,5.05
2019-02-12T02:18:17.515Z,4.78
2019-02-12T02:20:45.502Z,4.33
2019-02-12T02:23:13.576Z,3.90
2019-02-12T02:25:41.447Z,4.55
2019-02-12T02:28:09.402Z,5.22
2019-02-12T02:30:37.717Z,4.62
2019-02-12T02:33:05.996Z,6.30
2019-02-12T02:35:34.060Z,5.28
2019-02-12T02:38:02.046Z,5.50
2019-02-12T02:40:29.910Z,7.62
2019-02-12T02:42:57.918Z,7.20
2019-02-12T02:45:25.801Z,7.17
2019-02-12T02:47:53.694Z,7.92
2019-02-12T02:50:21.658Z,7.08
2019-02-12T02:52:49.608Z,5.35
2019-02-12T02:55:19.222Z,7.08
2019-02-12T02:57:47.652Z,6.72
2019-02-12T03:00:15.767Z,6.25
2019-02-12T03:02:44.384Z,7.80
2019-02-12T03:05:12.333Z,7.78
2019-02-12T03:07:40.218Z,7.00
2019-02-12T03:10:09.705Z,8.45
2019-02-12T03:12:37.673Z,7.12
2019-02-12T03:15:07.267Z,8.88
2019-02-12T03:17:35.522Z,9.18
2019-02-12T03:20:03.828Z,9.28
2019-02-12T03:22:31.753Z,8.95
2019-02-12T03:24:59.631Z,8.80
2019-02-12T03:27:27.834Z,9.28
2019-02-12T03:29:56.061Z,9.23
2019-02-12T03:32:23.963Z,9.65
2019-02-12T03:34:51.896Z,12.53
2019-02-12T03:37:19.842Z,9.03
2019-02-12T03:39:47.760Z,9.00
2019-02-12T03:42:15.730Z,8.45
2019-02-12T03:44:44.135Z,6.90
2019-02-12T03:47:12.202Z,8.30
2019-02-12T03:49:40.175Z,7.20
2019-02-12T03:52:13.002Z,7.58
2019-02-12T03:54:38.487Z,7.65
2019-02-12T03:57:06.557Z,7.58
2019-02-12T03:59:34.668Z,5.80
2019-02-12T04:02:02.567Z,7.17
2019-02-12T04:04:30.506Z,6.78
2019-02-12T04:06:58.459Z,7.00
2019-02-12T04:09:26.402Z,6.35
2019-02-12T04:11:54.610Z,6.40
2019-02-12T04:14:22.599Z,7.28
2019-02-12T04:16:51.147Z,6.30
2019-02-12T04:19:19.236Z,6.55
2019-02-12T04:21:47.255Z,5.78
2019-02-12T04:24:15.256Z,5.78
2019-02-12T04:26:43.639Z,6.95
2019-02-12T04:29:11.543Z,5.60
2019-02-12T04:31:39.422Z,5.92
2019-02-12T04:34:07.422Z,6.00
2019-02-12T04:36:35.361Z,5.65
2019-02-12T04:39:04.951Z,6.85
2019-02-12T04:41:33.002Z,6.80
2019-02-12T04:44:01.070Z,4.80
2019-02-12T04:46:29.016Z,6.30
2019-02-12T04:48:57.333Z,5.00
2019-02-12T04:51:25.441Z,7.42
2019-02-12T04:53:53.787Z,5.42
2019-02-12T04:56:22.141Z,5.08
2019-02-12T04:58:50.017Z,4.92
2019-02-12T05:01:18.091Z,4.65
2019-02-12T05:03:46.604Z,4.80
2019-02-12T05:06:14.515Z,5.03
2019-02-12T05:09:27.791Z,4.15
2019-02-12T05:12:02.226Z,3.80
2019-02-12T05:14:30.193Z,4.15
2019-02-12T05:16:58.738Z,7.15
2019-02-12T05:19:26.632Z,5.80
2019-02-12T05:21:54.783Z,4.83
2019-02-12T05:24:22.742Z,5.70
2019-02-12T05:26:51.096Z,4.15
2019-02-12T05:29:19.055Z,3.90
2019-02-12T05:31:46.945Z,5.25
2019-02-12T05:34:14.989Z,5.30
2019-02-12T05:36:43.013Z,4.25
2019-02-12T05:39:11.149Z,4.97
2019-02-12T05:41:39.130Z,6.53
2019-02-12T05:44:06.998Z,4.47
2019-02-12T05:46:34.944Z,4.70
2019-02-12T05:49:02.806Z,4.65
2019-02-12T05:51:30.766Z,4.28
2019-02-12T05:53:58.725Z,5.10
2019-02-12T05:56:26.673Z,4.83
2019-02-12T05:58:54.776Z,5.33
2019-02-12T06:01:22.807Z,4.25
2019-02-12T06:03:50.668Z,4.78
2019-02-12T06:06:18.645Z,4.95
2019-02-12T06:08:46.570Z,5.37
2019-02-12T06:11:15.267Z,4.85
2019-02-12T06:13:43.260Z,4.37
2019-02-12T06:16:11.288Z,5.05
2019-02-12T06:18:39.476Z,4.92
2019-02-12T06:21:07.860Z,4.80
2019-02-12T06:23:35.834Z,4.25
2019-02-12T06:26:03.801Z,4.67
2019-02-12T06:28:32.212Z,6.03
2019-02-12T06:31:00.233Z,4.15
2019-02-12T06:33:28.232Z,4.40
2019-02-12T06:35:56.385Z,4.80
2019-02-12T06:38:24.691Z,6.58
2019-02-12T06:40:52.600Z,6.17
2019-02-12T06:43:20.653Z,5.75
2019-02-12T06:45:48.743Z,5.08
2019-02-12T06:48:16.651Z,5.97
2019-02-12T06:50:44.581Z,6.72
2019-02-12T06:53:12.974Z,7.20
2019-02-12T06:55:41.471Z,5.85
2019-02-12T06:58:09.501Z,5.85
2019-02-12T07:00:37.929Z,5.87
2019-02-12T07:03:14.142Z,5.62
2019-02-12T07:06:20.858Z,5.55
2019-02-12T07:09:40.131Z,4.45
2019-02-12T07:13:09.772Z,6.08
2019-02-12T07:16:22.864Z,6.25
2019-02-12T07:19:39.649Z,5.87
2019-02-12T07:22:51.292Z,5.83
2019-02-12T07:26:28.597Z,4.15
2019-02-12T07:30:21.617Z,4.92
2019-02-12T07:33:47.374Z,5.17
2019-02-12T07:37:18.475Z,5.60
2019-02-12T07:40:33.396Z,6.17
2019-02-12T07:44:19.265Z,6.60
2019-02-12T07:47:41.073Z,5.67
2019-02-12T07:51:07.792Z,5.83
2019-02-12T07:54:26.121Z,5.50
2019-02-12T07:58:03.135Z,5.58
2019-02-12T08:01:07.230Z,5.25
2019-02-12T08:04:41.052Z,4.35
2019-02-12T08:07:51.253Z,6.00
2019-02-12T08:11:11.770Z,5.25
2019-02-12T08:14:35.378Z,5.87
2019-02-12T08:18:10.331Z,5.67
2019-02-12T08:21:23.258Z,5.75
2019-02-12T08:24:43.731Z,6.75
2019-02-12T08:28:08.102Z,5.92
2019-02-12T08:31:12.758Z,5.75
2019-02-12T08:34:28.608Z,5.95
2019-02-12T08:37:34.749Z,5.08
2019-02-12T08:41:21.943Z,5.72
2019-02-12T08:44:42.954Z,5.40
2019-02-12T08:47:42.374Z,7.35
2019-02-12T08:51:01.765Z,6.50
2019-02-12T08:54:17.303Z,6.10
2019-02-12T08:57:22.006Z,6.60
2019-02-12T09:00:29.680Z,7.28
2019-02-12T09:03:57.389Z,6.65
2019-02-12T09:07:27.480Z,7.17
2019-02-12T09:11:01.519Z,7.17
2019-02-12T09:14:37.488Z,6.03
2019-02-12T09:18:08.528Z,5.65
2019-02-12T09:21:39.307Z,7.37
2019-02-12T09:24:26.481Z,8.30
2019-02-12T09:27:38.447Z,8.33
2019-02-12T09:31:08.581Z,7.40
2019-02-12T09:34:49.641Z,8.00
2019-02-12T09:37:49.036Z,7.37
2019-02-12T09:41:14.561Z,9.38
2019-02-12T09:44:46.178Z,8.40
2019-02-12T09:47:55.754Z,8.75
2019-02-12T09:51:35.966Z,7.75
2019-02-12T09:55:07.255Z,5.97
2019-02-12T09:58:43.910Z,5.50
2019-02-12T10:01:43.957Z,5.80
2019-02-12T10:05:04.126Z,7.05
2019-02-12T10:08:15.262Z,5.92
2019-02-12T10:11:32.529Z,7.15
2019-02-12T10:14:42.713Z,6.22
2019-02-12T10:17:56.383Z,7.42
2019-02-12T10:20:44.889Z,7.30
2019-02-12T10:23:53.146Z,7.60
2019-02-12T10:26:22.283Z,8.03
2019-02-12T10:29:52.876Z,8.10
2019-02-12T10:32:19.180Z,6.40
2019-02-12T10:34:47.884Z,7.28
2019-02-12T10:37:15.820Z,7.33
2019-02-12T10:39:44.156Z,6.92
2019-02-12T10:42:12.577Z,6.83
2019-02-12T10:44:42.136Z,7.20
2019-02-12T10:47:10.114Z,6.83
2019-02-12T10:49:39.767Z,6.83
2019-02-12T10:52:08.762Z,6.70
2019-02-12T10:54:37.107Z,6.85
2019-02-12T10:57:05.310Z,6.45
2019-02-12T10:59:33.586Z,6.08
2019-02-12T11:02:02.112Z,6.60
2019-02-12T11:04:30.132Z,6.33
2019-02-12T11:06:58.445Z,6.15
2019-02-12T11:09:27.015Z,5.85
2019-02-12T11:11:54.881Z,6.47
2019-02-12T11:14:23.142Z,6.50
2019-02-12T11:16:51.174Z,4.55
2019-02-12T11:19:19.313Z,4.80
2019-02-12T11:21:47.303Z,4.75
2019-02-12T11:24:15.362Z,5.08
2019-02-12T11:26:43.245Z,5.85
2019-02-12T11:29:11.489Z,4.20
2019-02-12T11:31:39.511Z,5.60
2019-02-12T11:34:08.092Z,6.22
2019-02-12T11:36:36.077Z,5.25
2019-02-12T11:39:06.371Z,6.30
2019-02-12T11:41:36.058Z,4.97
2019-02-12T11:44:04.756Z,6.17
2019-02-12T11:46:32.802Z,5.53
2019-02-12T11:49:00.939Z,5.92
2019-02-12T11:51:29.648Z,6.05
2019-02-12T11:53:57.652Z,5.20
2019-02-12T11:56:25.703Z,4.65
2019-02-12T11:58:53.739Z,6.75
2019-02-12T12:01:24.621Z,5.42
2019-02-12T12:03:52.881Z,4.78
2019-02-12T12:06:20.873Z,4.65
2019-02-12T12:08:49.056Z,4.80
2019-02-12T12:11:17.400Z,4.20
2019-02-12T12:13:45.323Z,3.30
2019-02-12T12:16:13.669Z,2.92
2019-02-12T12:18:41.810Z,2.17
2019-02-12T12:21:09.919Z,1.45
2019-02-12T12:23:38.024Z,1.42
2019-02-12T12:26:06.115Z,1.90
2019-02-12T12:28:34.123Z,1.87
2019-02-12T12:31:02.577Z,2.15
2019-02-12T12:33:30.653Z,3.80
2019-02-12T12:35:58.525Z,1.22
2019-02-12T12:38:26.463Z,2.10
2019-02-12T12:40:54.657Z,2.00
2019-02-12T12:43:23.048Z,2.20
2019-02-12T12:45:51.218Z,2.50
2019-02-12T12:48:19.616Z,2.30
2019-02-12T12:50:47.720Z,2.92
2019-02-12T12:53:15.794Z,1.70
2019-02-12T12:55:43.749Z,1.10
2019-02-12T12:58:11.798Z,2.45
2019-02-12T13:00:39.701Z,1.92
2019-02-12T13:03:07.888Z,1.60
2019-02-12T13:05:35.886Z,1.98
2019-02-12T13:08:03.903Z,1.60
2019-02-12T13:10:32.065Z,1.95
2019-02-12T13:12:59.961Z,2.05
2019-02-12T13:15:28.417Z,2.02
2019-02-12T13:17:56.731Z,2.12
2019-02-12T13:20:24.622Z,1.72
2019-02-12T13:22:52.543Z,2.33
2019-02-12T13:25:20.563Z,1.87
2019-02-12T13:27:49.130Z,1.10
2019-02-12T13:30:17.301Z,1.67
2019-02-12T13:32:45.289Z,1.30
2019-02-12T13:35:13.740Z,1.25
2019-02-12T13:37:42.060Z,1.85
2019-02-12T13:40:11.075Z,1.30
2019-02-12T13:42:39.037Z,2.85
2019-02-12T13:45:09.893Z,1.35
2019-02-12T13:47:38.288Z,2.00
2019-02-12T13:50:07.138Z,1.95
2019-02-12T13:52:35.776Z,2.30
2019-02-12T13:55:04.160Z,1.20
2019-02-12T13:57:32.746Z,1.57
2019-02-12T14:00:00.774Z,1.87
2019-02-12T14:02:28.707Z,1.50
2019-02-12T14:04:56.879Z,1.30
2019-02-12T14:07:25.013Z,1.20
2019-02-12T14:09:52.956Z,1.27
2019-02-12T14:12:20.897Z,1.62
2019-02-12T14:14:49.443Z,1.42
2019-02-12T14:17:18.031Z,1.25
2019-02-12T14:19:46.391Z,1.55
2019-02-12T14:22:14.576Z,1.62
2019-02-12T14:24:42.537Z,1.92
2019-02-12T14:27:10.672Z,1.98
2019-02-12T14:29:38.692Z,2.33
2019-02-12T14:32:06.749Z,2.00
2019-02-12T14:34:35.144Z,1.75
2019-02-12T14:37:03.244Z,1.67
2019-02-12T14:39:31.576Z,1.47
2019-02-12T14:41:59.591Z,1.52
2019-02-12T14:44:27.730Z,1.70
2019-02-12T14:46:55.691Z,1.52
2019-02-12T14:49:23.960Z,1.80
2019-02-12T14:51:52.079Z,1.35
2019-02-12T14:54:20.466Z,1.50
2019-02-12T14:56:48.494Z,2.35
2019-02-12T14:59:16.566Z,1.85
2019-02-12T15:01:44.786Z,1.25
2019-02-12T15:04:12.800Z,1.40
2019-02-12T15:06:40.905Z,1.07
2019-02-12T15:09:09.095Z,1.55
2019-02-12T15:11:37.046Z,1.60
2019-02-12T15:14:04.982Z,1.12
2019-02-12T15:16:33.447Z,1.50
2019-02-12T15:19:01.877Z,1.27
2019-02-12T15:21:29.949Z,1.20
2019-02-12T15:23:58.033Z,1.22
2019-02-12T15:26:25.979Z,1.40
2019-02-12T15:28:54.252Z,1.17
2019-02-12T15:31:22.344Z,1.15
2019-02-12T15:33:50.357Z,1.05
2019-02-12T15:36:18.390Z,1.50
2019-02-12T15:38:46.377Z,2.22
2019-02-12T15:41:14.813Z,1.40
2019-02-12T15:43:43.033Z,1.72
2019-02-12T15:46:11.718Z,1.25
2019-02-12T15:48:40.240Z,1.30
2019-02-12T15:51:08.324Z,1.60
2019-02-12T15:53:36.659Z,1.45
2019-02-12T15:56:04.989Z,1.55
2019-02-12T15:58:33.395Z,1.50
2019-02-12T16:01:02.355Z,2.37
2019-02-12T16:03:31.639Z,1.65
2019-02-12T16:05:59.775Z,1.77
2019-02-12T16:08:29.663Z,1.98
2019-02-12T16:10:58.974Z,2.60
2019-02-12T16:13:27.374Z,2.42
2019-02-12T16:15:55.751Z,2.02
2019-02-12T16:18:24.918Z,1.60
2019-02-12T16:20:53.252Z,2.27
2019-02-12T16:23:21.259Z,1.75
2019-02-12T16:25:49.357Z,1.90
2019-02-12T16:28:18.025Z,1.62
2019-02-12T16:30:45.904Z,1.92
2019-02-12T16:33:14.078Z,1.45
2019-02-12T16:35:42.195Z,1.60
2019-02-12T16:38:10.629Z,1.10
2019-02-12T16:40:38.870Z,1.32
2019-02-12T16:43:06.880Z,2.08
2019-02-12T16:45:47.219Z,1.30
2019-02-12T16:48:15.206Z,1.77
2019-02-12T16:50:43.668Z,1.40
2019-02-12T16:53:11.897Z,1.30
2019-02-12T16:55:40.406Z,1.57
2019-02-12T16:58:08.470Z,2.10
2019-02-12T17:00:36.636Z,2.15
2019-02-12T17:03:05.209Z,1.85
2019-02-12T17:05:33.613Z,1.72
2019-02-12T17:08:05.042Z,2.62
2019-02-12T17:10:33.306Z,1.85
2019-02-12T17:13:01.260Z,1.52
2019-02-12T17:15:29.321Z,1.75
2019-02-12T17:17:57.649Z,2.10
2019-02-12T17:20:25.617Z,2.65
2019-02-12T17:22:53.631Z,2.17
2019-02-12T17:25:21.677Z,2.83
2019-02-12T17:27:49.805Z,3.58
2019-02-12T17:30:18.471Z,3.22
2019-02-12T17:32:46.902Z,3.22
2019-02-12T17:35:15.311Z,3.47
2019-02-12T17:37:43.696Z,2.50
2019-02-12T17:40:12.302Z,2.85
2019-02-12T17:42:40.706Z,3.65
2019-02-12T17:45:11.814Z,2.85
2019-02-12T17:47:40.107Z,2.80
2019-02-12T17:50:10.317Z,2.52
2019-02-12T17:52:38.741Z,2.40
2019-02-12T17:55:07.105Z,3.40
2019-02-12T17:57:35.584Z,2.70
2019-02-12T18:00:07.166Z,3.35
2019-02-12T18:02:35.312Z,4.50
2019-02-12T18:05:04.179Z,3.90
2019-02-12T18:07:32.412Z,3.70
2019-02-12T18:10:00.577Z,4.17
2019-02-12T18:12:29.145Z,3.72
2019-02-12T18:14:57.428Z,4.12
2019-02-12T18:17:25.931Z,4.05
2019-02-12T18:19:54.123Z,5.00
2019-02-12T18:22:22.362Z,6.58
2019-02-12T18:24:50.627Z,5.15
2019-02-12T18:27:18.799Z,5.92
2019-02-12T18:29:46.956Z,4.70
2019-02-12T18:32:15.238Z,4.72
2019-02-12T18:34:43.587Z,5.10
2019-02-12T18:37:12.148Z,4.20
2019-02-12T18:39:40.589Z,4.85
2019-02-12T18:42:08.666Z,4.50
2019-02-12T18:44:37.874Z,5.03
2019-02-12T18:47:07.610Z,4.12
2019-02-12T18:49:36.182Z,4.62
2019-02-12T18:52:04.301Z,4.50
2019-02-12T18:54:32.441Z,4.70
2019-02-12T18:57:01.466Z,4.65
2019-02-12T18:59:29.835Z,4.55
2019-02-12T19:01:58.071Z,5.85
2019-02-12T19:04:26.350Z,4.92
2019-02-12T19:06:54.479Z,5.75
2019-02-12T19:09:22.753Z,4.45
2019-02-12T19:11:54.352Z,4.90
2019-02-12T19:14:21.134Z,5.30
2019-02-12T19:16:49.370Z,5.95
2019-02-12T19:19:18.031Z,4.97
2019-02-12T19:21:46.038Z,4.80
2019-02-12T19:24:14.244Z,4.60
2019-02-12T19:26:49.642Z,5.05
2019-02-12T19:29:12.233Z,4.58
2019-02-12T19:31:40.835Z,5.28
2019-02-12T19:34:09.290Z,4.70
2019-02-12T19:36:37.647Z,4.60
2019-02-12T19:39:07.703Z,5.20
2019-02-12T19:41:36.273Z,6.15
2019-02-12T19:44:04.426Z,5.55
2019-02-12T19:46:32.524Z,4.90
2019-02-12T19:49:00.994Z,5.25
2019-02-12T19:51:29.416Z,5.30
2019-02-12T19:53:57.564Z,6.37
2019-02-12T19:56:25.861Z,6.10
2019-02-12T19:58:54.162Z,5.62
2019-02-12T20:01:22.794Z,5.47
2019-02-12T20:03:51.054Z,7.15
2019-02-12T20:06:20.195Z,7.08
2019-02-12T20:08:48.622Z,5.95
2019-02-12T20:11:17.259Z,7.20
2019-02-12T20:13:45.807Z,7.03
2019-02-12T20:16:14.721Z,6.20
2019-02-12T20:18:42.875Z,6.60
2019-02-12T20:21:11.038Z,7.62
2019-02-12T20:23:40.046Z,8.60
2019-02-12T20:26:08.112Z,7.53
2019-02-12T20:28:36.866Z,7.33
2019-02-12T20:31:05.046Z,6.30
2019-02-12T20:33:38.336Z,7.40
2019-02-12T20:36:11.329Z,7.00
2019-02-12T20:38:39.481Z,6.80
2019-02-12T20:41:07.720Z,6.75
2019-02-12T20:43:35.946Z,6.17
2019-02-12T20:46:04.098Z,7.83
2019-02-12T20:48:32.352Z,6.65
2019-02-12T20:51:00.780Z,6.90
2019-02-12T20:53:29.212Z,8.00
2019-02-12T20:55:57.323Z,7.45
2019-02-12T20:58:25.609Z,9.15
2019-02-12T21:00:53.579Z,6.75
2019-02-12T21:03:21.645Z,6.45
2019-02-12T21:05:49.600Z,7.12
2019-02-12T21:08:17.686Z,7.87
2019-02-12T21:10:46.180Z,8.25
2019-02-12T21:13:14.539Z,7.30
2019-02-12T21:15:43.110Z,7.83
2019-02-12T21:18:11.172Z,8.23
2019-02-12T21:20:39.427Z,8.75
2019-02-12T21:23:07.537Z,8.48
2019-02-12T21:25:36.096Z,8.80
2019-02-12T21:28:04.086Z,8.18
2019-02-12T21:30:32.465Z,9.48
2019-02-12T21:33:00.447Z,7.95
2019-02-12T21:35:28.441Z,9.10
2019-02-12T21:37:57.005Z,8.10
2019-02-12T21:40:25.654Z,8.70
2019-02-12T21:42:55.189Z,8.15
2019-02-12T21:45:23.322Z,9.20
2019-02-12T21:47:52.043Z,9.08
2019-02-12T21:50:20.562Z,11.83
2019-02-12T21:52:48.477Z,10.93
2019-02-12T21:55:20.777Z,9.05
2019-02-12T21:57:51.505Z,12.68
2019-02-12T22:00:20.069Z,14.33
2019-02-12T22:02:48.590Z,12.82
2019-02-12T22:05:16.701Z,12.63
2019-02-12T22:07:49.299Z,12.45
2019-02-12T22:10:18.755Z,13.80
2019-02-12T22:12:46.950Z,12.20
2019-02-12T22:15:14.977Z,11.18
2019-02-12T22:17:43.130Z,11.45
2019-02-12T22:20:14.092Z,11.18
2019-02-12T22:22:42.105Z,11.85
2019-02-12T22:25:10.758Z,12.90
2019-02-12T22:27:40.660Z,9.50
2019-02-12T22:30:15.529Z,9.03
2019-02-12T22:32:43.456Z,11.63
2019-02-12T22:35:11.750Z,11.70
2019-02-12T22:37:39.904Z,14.28
2019-02-12T22:40:08.779Z,14.07
2019-02-12T22:42:37.136Z,14.78
2019-02-12T22:45:08.061Z,12.90
2019-02-12T22:47:36.337Z,11.57
2019-02-12T22:50:04.843Z,10.75
2019-02-12T22:52:32.762Z,11.78
2019-02-12T22:55:00.813Z,11.00
2019-02-12T22:57:29.292Z,10.45
2019-02-12T22:59:57.253Z,10.65
2019-02-12T23:02:25.202Z,9.00
2019-02-12T23:04:53.181Z,10.65
2019-02-12T23:07:21.111Z,9.23
2019-02-12T23:09:49.353Z,9.50
2019-02-12T23:12:17.796Z,10.65
2019-02-12T23:14:45.819Z,9.13
2019-02-12T23:17:14.086Z,9.10
2019-02-12T23:19:42.121Z,10.23
2019-02-12T23:22:11.214Z,9.20
2019-02-12T23:24:39.740Z,8.70
2019-02-12T23:27:07.816Z,8.90
2019-02-12T23:29:35.884Z,8.88
2019-02-12T23:32:04.665Z,9.45
2019-02-12T23:34:34.496Z,8.73
2019-02-12T23:37:02.593Z,8.68
2019-02-12T23:39:30.549Z,8.63
2019-02-12T23:41:58.682Z,8.70
2019-02-12T23:44:27.322Z,8.10
2019-02-12T23:46:55.522Z,8.23
2019-02-12T23:49:23.490Z,6.80
2019-02-12T23:51:52.047Z,8.20
2019-02-12T23:54:20.459Z,6.60
2019-02-12T23:56:48.583Z,8.55
2019-02-12T23:59:16.780Z,9.00
